createdAt,value
2023-05-14T00:00:47.425Z,10.70
2023-05-14T00:03:14.573Z,10.70
2023-05-14T00:05:41.453Z,10.70
2023-05-14T00:08:08.307Z,10.70
2023-05-14T00:10:35.501Z,10.70
2023-05-14T00:13:02.344Z,10.70
2023-05-14T00:15:29.126Z,10.80
2023-05-14T00:17:56.000Z,10.80
2023-05-14T00:20:23.070Z,10.80
2023-05-14T00:22:50.270Z,10.70
2023-05-14T00:25:17.125Z,10.70
2023-05-14T00:27:43.858Z,10.70
2023-05-14T00:30:11.052Z,10.70
2023-05-14T00:32:38.058Z,10.60
2023-05-14T00:35:05.403Z,10.70
2023-05-14T00:37:32.196Z,10.60
2023-05-14T00:39:59.146Z,10.60
2023-05-14T00:42:27.213Z,10.50
2023-05-14T00:44:54.145Z,10.50
2023-05-14T00:47:21.227Z,10.50
2023-05-14T00:49:48.258Z,10.50
2023-05-14T00:52:16.442Z,10.40
2023-05-14T00:54:43.293Z,10.40
2023-05-14T00:57:10.177Z,10.40
2023-05-14T00:59:37.097Z,10.30
2023-05-14T01:02:04.045Z,10.20
2023-05-14T01:04:30.858Z,10.20
2023-05-14T01:07:28.620Z,10.20
2023-05-14T01:09:59.586Z,10.20
2023-05-14T01:12:57.414Z,10.00
2023-05-14T01:15:30.614Z,10.00
2023-05-14T01:18:01.817Z,9.90
2023-05-14T01:20:28.589Z,9.80
2023-05-14T01:22:55.499Z,9.70
2023-05-14T01:25:22.214Z,9.70
2023-05-14T01:28:20.059Z,9.60
2023-05-14T01:30:54.442Z,9.60
2023-05-14T01:33:23.875Z,9.50
2023-05-14T01:35:53.861Z,9.50
2023-05-14T01:38:21.652Z,9.50
2023-05-14T01:40:50.426Z,9.40
2023-05-14T01:43:17.744Z,9.40
2023-05-14T01:45:44.648Z,9.40
2023-05-14T01:48:11.882Z,9.30
2023-05-14T01:50:38.710Z,9.30
2023-05-14T01:53:05.586Z,9.30
2023-05-14T01:55:32.415Z,9.40
2023-05-14T01:57:59.249Z,9.30
2023-05-14T02:00:26.383Z,9.30
2023-05-14T02:02:53.536Z,9.30
2023-05-14T02:05:21.069Z,9.30
2023-05-14T02:07:47.968Z,9.30
2023-05-14T02:10:14.865Z,9.30
2023-05-14T02:12:41.741Z,9.40
2023-05-14T02:15:10.971Z,9.50
2023-05-14T02:17:38.230Z,9.60
2023-05-14T02:20:05.691Z,9.60
2023-05-14T02:22:32.580Z,9.60
2023-05-14T02:24:59.567Z,9.70
2023-05-14T02:27:26.349Z,9.60
2023-05-14T02:29:53.331Z,9.60
2023-05-14T02:32:20.300Z,9.60
2023-05-14T02:34:47.233Z,9.70
2023-05-14T02:37:14.261Z,9.70
2023-05-14T02:39:41.049Z,9.70
2023-05-14T02:42:07.954Z,9.70
2023-05-14T02:44:34.885Z,9.70
2023-05-14T02:47:01.688Z,9.70
2023-05-14T02:49:28.673Z,9.70
2023-05-14T02:51:55.518Z,9.80
2023-05-14T02:54:22.284Z,9.90
2023-05-14T02:56:49.207Z,9.80
2023-05-14T02:59:16.070Z,9.80
2023-05-14T04:02:19.015Z,10.20
2023-05-14T04:04:45.855Z,10.20
2023-05-14T04:07:12.714Z,10.20
2023-05-14T04:09:39.516Z,10.30
2023-05-14T04:12:07.059Z,10.30
2023-05-14T04:14:33.817Z,10.40
2023-05-14T04:17:00.754Z,10.30
2023-05-14T04:19:27.717Z,10.30
2023-05-14T04:21:54.460Z,10.20
2023-05-14T04:24:21.421Z,10.20
2023-05-14T04:26:48.234Z,10.20
2023-05-14T04:29:15.062Z,10.20
2023-05-14T04:31:43.154Z,10.20
2023-05-14T04:34:10.161Z,10.20
2023-05-14T04:36:36.935Z,10.20
2023-05-14T04:39:04.090Z,10.20
2023-05-14T04:41:31.016Z,10.30
2023-05-14T04:44:01.470Z,10.20
2023-05-14T04:46:28.784Z,10.30
2023-05-14T04:48:56.558Z,10.20
2023-05-14T04:51:23.969Z,10.20
2023-05-14T04:53:50.723Z,10.30
2023-05-14T04:56:17.530Z,10.30
2023-05-14T04:58:44.544Z,10.30
2023-05-14T05:01:11.739Z,10.30
2023-05-14T05:03:38.485Z,10.30
2023-05-14T05:06:05.643Z,10.30
2023-05-14T05:08:32.468Z,10.30
2023-05-14T05:10:59.249Z,10.30
2023-05-14T05:13:26.084Z,10.40
2023-05-14T05:15:52.917Z,10.40
2023-05-14T05:18:19.817Z,10.30
2023-05-14T05:20:46.639Z,10.30
2023-05-14T05:23:13.320Z,10.30
2023-05-14T05:25:40.173Z,10.30
2023-05-14T05:28:07.044Z,10.20
2023-05-14T05:30:34.093Z,10.10
2023-05-14T05:33:01.229Z,10.20
2023-05-14T05:35:28.024Z,10.20
2023-05-14T05:37:54.904Z,10.20
2023-05-14T05:40:21.975Z,10.20
2023-05-14T05:42:48.889Z,10.20
2023-05-14T05:45:15.958Z,10.20
2023-05-14T05:47:42.852Z,10.20
2023-05-14T05:50:10.052Z,10.20
2023-05-14T05:52:37.016Z,10.30
2023-05-14T05:55:04.082Z,10.30
2023-05-14T05:57:30.903Z,10.30
2023-05-14T05:59:58.056Z,10.40
2023-05-14T06:02:25.286Z,10.50
2023-05-14T06:04:53.136Z,10.50
2023-05-14T06:07:20.054Z,10.60
2023-05-14T06:09:46.922Z,10.70
2023-05-14T06:12:13.728Z,10.70
2023-05-14T06:14:40.584Z,10.80
2023-05-14T06:17:07.654Z,10.80
2023-05-14T06:19:34.456Z,10.90
2023-05-14T06:22:01.308Z,10.80
2023-05-14T06:24:28.206Z,10.90
2023-05-14T06:26:55.026Z,11.00
2023-05-14T06:29:21.973Z,11.10
2023-05-14T06:31:48.892Z,11.20
2023-05-14T06:34:15.845Z,11.30
2023-05-14T06:36:42.661Z,11.20
2023-05-14T06:39:09.974Z,11.20
2023-05-14T06:41:36.691Z,11.40
2023-05-14T06:44:03.795Z,11.50
2023-05-14T06:46:30.974Z,11.50
2023-05-14T06:48:59.456Z,11.60
2023-05-14T06:51:26.767Z,11.60
2023-05-14T06:53:54.745Z,11.50
2023-05-14T06:56:22.533Z,11.70
2023-05-14T06:58:49.325Z,11.70
2023-05-14T07:01:17.529Z,11.70
2023-05-14T07:03:44.673Z,11.70
2023-05-14T07:06:13.529Z,11.70
2023-05-14T07:08:40.824Z,11.70
2023-05-14T07:11:07.707Z,11.90
2023-05-14T07:13:34.518Z,11.90
2023-05-14T07:16:01.344Z,12.00
2023-05-14T07:18:28.874Z,12.10
2023-05-14T07:20:55.814Z,12.20
2023-05-14T07:23:22.820Z,12.20
2023-05-14T07:25:49.653Z,12.30
2023-05-14T07:28:16.494Z,12.40
2023-05-14T07:30:43.417Z,12.40
2023-05-14T07:33:10.415Z,12.40
2023-05-14T07:35:37.488Z,12.40
2023-05-14T07:38:05.818Z,12.50
2023-05-14T07:40:32.688Z,12.50
2023-05-14T07:43:08.672Z,12.50
2023-05-14T07:45:37.259Z,12.60
2023-05-14T07:48:04.333Z,12.70
2023-05-14T07:50:31.626Z,12.90
2023-05-14T07:52:58.509Z,13.10
2023-05-14T07:55:25.979Z,13.20
2023-05-14T07:57:52.725Z,13.20
2023-05-14T08:00:19.728Z,13.30
2023-05-14T08:02:46.726Z,13.20
2023-05-14T08:05:14.023Z,13.30
2023-05-14T08:07:41.434Z,13.30
2023-05-14T08:10:08.922Z,13.40
2023-05-14T08:12:35.676Z,13.40
2023-05-14T08:15:02.665Z,13.80
2023-05-14T08:17:30.108Z,13.80
2023-05-14T08:19:56.954Z,14.20
2023-05-14T08:22:23.668Z,14.60
2023-05-14T08:24:50.485Z,15.40
2023-05-14T08:27:17.243Z,15.40
2023-05-14T08:29:44.156Z,15.40
2023-05-14T08:32:31.168Z,15.50
2023-05-14T08:34:58.079Z,15.50
2023-05-14T08:37:24.934Z,15.70
2023-05-14T08:39:51.790Z,15.60
2023-05-14T08:42:22.012Z,15.70
2023-05-14T08:44:53.127Z,15.90
2023-05-14T08:47:22.961Z,16.00
2023-05-14T08:49:58.253Z,15.70
2023-05-14T08:52:25.237Z,16.10
2023-05-14T08:54:54.304Z,16.20
2023-05-14T08:57:24.688Z,16.10
2023-05-14T08:59:51.991Z,16.70
2023-05-14T09:02:22.992Z,16.90
2023-05-14T09:04:54.394Z,17.20
2023-05-14T09:07:21.417Z,17.10
2023-05-14T09:09:48.430Z,17.00
2023-05-14T09:12:15.312Z,16.70
2023-05-14T09:14:42.950Z,16.50
2023-05-14T09:17:12.412Z,16.40
2023-05-14T09:19:40.800Z,16.40
2023-05-14T09:22:11.776Z,16.50
2023-05-14T09:24:38.956Z,16.50
2023-05-14T09:27:06.914Z,16.70
2023-05-14T09:29:34.299Z,16.60
2023-05-14T09:32:05.340Z,16.50
2023-05-14T09:34:34.180Z,16.70
2023-05-14T09:37:02.904Z,16.90
2023-05-14T09:39:31.214Z,17.00
2023-05-14T09:41:58.581Z,16.90
2023-05-14T09:44:26.242Z,17.30
2023-05-14T09:46:54.612Z,18.40
2023-05-14T09:51:50.426Z,20.40
2023-05-14T09:54:17.595Z,21.50
2023-05-14T09:56:44.801Z,21.30
2023-05-14T09:59:12.218Z,21.40
2023-05-14T10:01:43.675Z,22.10
2023-05-14T10:04:12.750Z,21.90
2023-05-14T10:06:40.387Z,22.40
2023-05-14T10:09:13.417Z,22.80
2023-05-14T10:11:43.902Z,22.60
2023-05-14T10:14:20.780Z,22.60
2023-05-14T10:16:50.613Z,23.80
2023-05-14T10:19:20.820Z,25.00
2023-05-14T10:21:53.578Z,25.50
2023-05-14T10:24:20.872Z,27.10
2023-05-14T10:29:15.568Z,26.30
2023-05-14T10:31:57.804Z,24.90
2023-05-14T10:34:42.655Z,23.90
2023-05-14T10:37:16.194Z,24.70
2023-05-14T10:39:51.372Z,25.50
2023-05-14T10:42:22.627Z,25.60
2023-05-14T10:44:53.589Z,25.10
2023-05-14T10:47:20.734Z,25.40
2023-05-14T10:49:49.336Z,25.30
2023-05-14T10:52:21.247Z,24.20
2023-05-14T10:54:51.698Z,23.50
2023-05-14T10:57:20.924Z,23.30
2023-05-14T11:00:24.688Z,22.60
2023-05-14T11:02:57.921Z,22.00
2023-05-14T11:05:27.564Z,22.60
2023-05-14T11:07:57.919Z,22.50
2023-05-14T11:10:28.528Z,23.10
2023-05-14T11:12:56.957Z,22.70
2023-05-14T11:15:26.202Z,22.40
2023-05-14T11:17:54.493Z,21.90
2023-05-14T11:20:21.790Z,21.60
2023-05-14T11:22:51.627Z,21.00
2023-05-14T11:25:19.821Z,20.50
2023-05-14T11:27:47.999Z,19.90
2023-05-14T11:30:16.954Z,20.00
2023-05-14T11:32:46.818Z,19.80
2023-05-14T11:35:14.606Z,20.30
2023-05-14T11:37:42.053Z,20.90
2023-05-14T11:40:14.910Z,21.80
2023-05-14T11:42:41.789Z,22.30
2023-05-14T11:45:12.688Z,22.30
2023-05-14T11:47:41.420Z,21.30
2023-05-14T11:50:09.554Z,20.90
2023-05-14T11:52:41.532Z,20.40
2023-05-14T11:55:16.053Z,20.00
2023-05-14T11:57:43.161Z,20.20
2023-05-14T12:00:22.082Z,20.50
2023-05-14T12:02:49.811Z,20.60
2023-05-14T12:05:16.936Z,21.00
2023-05-14T12:07:46.312Z,21.30
2023-05-14T12:10:13.839Z,21.80
2023-05-14T12:12:40.713Z,22.10
2023-05-14T12:15:12.769Z,22.70
2023-05-14T12:17:39.922Z,22.60
2023-05-14T12:20:10.730Z,23.20
2023-05-14T12:22:37.853Z,23.40
2023-05-14T12:25:04.950Z,23.90
2023-05-14T12:27:31.772Z,24.10
2023-05-14T12:30:09.231Z,23.10
2023-05-14T12:32:46.981Z,23.00
2023-05-14T12:35:13.792Z,23.10
2023-05-14T12:37:40.700Z,23.40
2023-05-14T12:40:11.535Z,23.30
2023-05-14T12:42:38.378Z,23.80
2023-05-14T12:45:07.998Z,23.90
2023-05-14T12:47:36.312Z,23.50
2023-05-14T12:50:04.219Z,23.00
2023-05-14T12:55:01.450Z,22.30
2023-05-14T12:57:29.731Z,22.70
2023-05-14T12:59:57.395Z,23.30
2023-05-14T13:02:24.137Z,24.30
2023-05-14T13:04:50.986Z,24.90
2023-05-14T13:07:17.846Z,25.70
2023-05-14T13:09:44.602Z,25.70
2023-05-14T13:12:11.459Z,25.10
2023-05-14T13:14:38.286Z,24.60
2023-05-14T13:17:05.962Z,23.90
2023-05-14T13:19:32.896Z,22.90
2023-05-14T13:21:59.662Z,22.50
2023-05-14T13:24:26.445Z,21.80
2023-05-14T13:26:53.251Z,21.40
2023-05-14T13:29:20.090Z,21.00
2023-05-14T13:31:47.138Z,20.90
2023-05-14T13:34:15.670Z,20.60
2023-05-14T13:36:43.766Z,20.50
2023-05-14T13:39:13.548Z,20.10
2023-05-14T13:41:41.363Z,20.10
2023-05-14T13:44:08.375Z,20.00
2023-05-14T13:46:35.367Z,20.00
2023-05-14T13:49:02.168Z,20.10
2023-05-14T13:51:28.963Z,20.50
2023-05-14T13:53:56.146Z,21.60
2023-05-14T13:56:23.149Z,22.30
2023-05-14T13:58:50.176Z,23.10
2023-05-14T14:01:17.190Z,23.60
2023-05-14T14:03:44.116Z,23.90
2023-05-14T14:06:10.976Z,23.40
2023-05-14T14:08:37.781Z,22.90
2023-05-14T14:11:04.752Z,22.30
2023-05-14T14:13:31.585Z,21.70
2023-05-14T14:15:58.675Z,20.80
2023-05-14T14:18:25.684Z,20.40
2023-05-14T14:20:52.560Z,20.20
2023-05-14T14:23:19.746Z,19.90
2023-05-14T14:25:46.783Z,19.60
2023-05-14T14:28:13.775Z,19.60
2023-05-14T14:30:41.184Z,19.60
2023-05-14T14:33:08.186Z,19.40
2023-05-14T14:35:35.861Z,19.20
2023-05-14T14:38:02.781Z,19.00
2023-05-14T14:40:29.775Z,18.90
2023-05-14T14:42:56.674Z,19.10
2023-05-14T14:45:23.755Z,19.30
2023-05-14T14:47:50.860Z,19.40
2023-05-14T14:50:17.758Z,19.50
2023-05-14T14:52:46.043Z,19.60
2023-05-14T14:55:13.156Z,19.50
2023-05-14T14:57:39.978Z,19.30
2023-05-14T15:00:07.541Z,19.10
2023-05-14T15:02:34.874Z,19.00
2023-05-14T15:05:01.857Z,18.90
2023-05-14T15:07:32.830Z,18.90
2023-05-14T15:10:00.909Z,18.80
2023-05-14T15:12:27.683Z,18.60
2023-05-14T15:14:54.472Z,18.50
2023-05-14T15:17:21.359Z,18.40
2023-05-14T15:19:48.181Z,18.20
2023-05-14T15:22:15.014Z,18.10
2023-05-14T15:24:41.782Z,18.00
2023-05-14T15:27:08.586Z,18.00
2023-05-14T15:29:35.513Z,18.00
2023-05-14T15:32:03.099Z,18.00
2023-05-14T15:34:29.921Z,18.00
2023-05-14T15:36:56.919Z,18.10
2023-05-14T15:39:23.674Z,18.00
2023-05-14T15:41:50.448Z,18.00
2023-05-14T15:44:17.289Z,18.00
2023-05-14T15:46:44.167Z,18.00
2023-05-14T15:49:11.159Z,18.10
2023-05-14T15:51:37.906Z,18.00
2023-05-14T15:54:04.869Z,18.10
2023-05-14T15:56:31.743Z,18.10
2023-05-14T15:58:58.638Z,18.00
2023-05-14T16:01:25.526Z,18.10
2023-05-14T16:03:53.170Z,18.10
2023-05-14T16:06:20.078Z,18.30
2023-05-14T16:08:47.021Z,18.10
2023-05-14T16:11:13.805Z,17.90
2023-05-14T16:13:41.648Z,17.80
2023-05-14T16:16:08.545Z,17.80
2023-05-14T16:18:35.394Z,17.80
2023-05-14T16:21:02.364Z,17.90
2023-05-14T16:23:29.256Z,18.00
2023-05-14T16:25:56.106Z,18.10
2023-05-14T16:28:23.240Z,18.10
2023-05-14T16:30:50.177Z,18.10
2023-05-14T16:33:17.013Z,18.30
2023-05-14T16:35:45.376Z,18.50
2023-05-14T16:38:12.172Z,18.50
2023-05-14T16:40:38.890Z,18.70
2023-05-14T16:43:05.999Z,18.50
2023-05-14T16:45:34.866Z,18.40
2023-05-14T16:48:01.848Z,18.20
2023-05-14T16:50:29.339Z,18.10
2023-05-14T16:52:56.268Z,17.80
2023-05-14T16:55:25.325Z,17.60
2023-05-14T16:57:52.510Z,17.30
2023-05-14T17:00:19.503Z,17.00
2023-05-14T17:02:49.172Z,16.80
2023-05-14T17:05:16.483Z,16.60
2023-05-14T17:07:43.322Z,16.40
2023-05-14T17:10:15.489Z,16.30
2023-05-14T17:13:04.954Z,16.20
2023-05-14T17:15:44.693Z,16.30
2023-05-14T17:18:12.155Z,16.40
2023-05-14T17:20:39.266Z,16.40
2023-05-14T17:23:06.346Z,16.50
2023-05-14T17:25:33.626Z,16.50
2023-05-14T17:28:00.584Z,16.50
2023-05-14T17:30:27.661Z,16.70
2023-05-14T17:32:54.630Z,16.60
2023-05-14T17:35:21.920Z,16.50
2023-05-14T17:37:48.843Z,16.60
2023-05-14T17:40:16.080Z,16.50
2023-05-14T17:42:45.444Z,16.50
2023-05-14T17:45:13.252Z,16.60
2023-05-14T17:47:40.312Z,16.50
2023-05-14T17:50:07.812Z,16.50
2023-05-14T17:52:34.712Z,16.50
2023-05-14T17:55:01.628Z,16.30
2023-05-14T17:57:28.717Z,16.30
2023-05-14T17:59:55.645Z,16.20
2023-05-14T18:02:22.537Z,16.10
2023-05-14T18:04:49.361Z,16.00
2023-05-14T18:07:16.630Z,15.90
2023-05-14T18:09:43.485Z,15.80
2023-05-14T18:12:10.374Z,15.70
2023-05-14T18:14:37.173Z,15.60
2023-05-14T18:17:04.264Z,15.50
2023-05-14T18:19:31.354Z,15.40
2023-05-14T18:21:58.254Z,15.30
2023-05-14T18:24:25.163Z,15.20
2023-05-14T18:26:52.174Z,15.10
2023-05-14T18:29:19.388Z,14.90
2023-05-14T18:31:46.156Z,14.80
2023-05-14T18:34:13.172Z,14.70
2023-05-14T18:36:40.564Z,14.50
2023-05-14T18:39:07.630Z,14.40
2023-05-14T18:41:34.565Z,14.30
2023-05-14T18:44:02.336Z,14.20
2023-05-14T18:46:29.439Z,14.10
2023-05-14T18:48:57.076Z,13.90
2023-05-14T18:51:24.230Z,13.80
2023-05-14T18:53:51.581Z,13.70
2023-05-14T18:56:18.487Z,13.60
2023-05-14T18:58:45.368Z,13.50
2023-05-14T19:01:12.493Z,13.40
2023-05-14T19:03:41.542Z,13.30
2023-05-14T19:06:08.644Z,13.30
2023-05-14T19:08:35.910Z,13.20
2023-05-14T19:11:03.237Z,13.20
2023-05-14T19:13:30.357Z,13.10
2023-05-14T19:15:57.377Z,13.00
2023-05-14T19:18:24.430Z,12.90
2023-05-14T19:20:51.845Z,12.80
2023-05-14T19:23:18.765Z,12.80
2023-05-14T19:25:46.794Z,12.70
2023-05-14T19:28:14.235Z,12.70
2023-05-14T19:30:41.407Z,12.70
2023-05-14T19:33:08.526Z,12.70
2023-05-14T19:35:35.803Z,12.60
2023-05-14T19:38:02.547Z,12.60
2023-05-14T19:40:29.405Z,12.60
2023-05-14T19:42:56.133Z,12.60
2023-05-14T19:45:23.201Z,12.50
2023-05-14T19:47:50.144Z,12.50
2023-05-14T19:50:17.082Z,12.50
2023-05-14T19:52:44.019Z,12.50
2023-05-14T19:55:10.807Z,12.40
2023-05-14T19:57:39.168Z,12.40
2023-05-14T20:00:09.005Z,12.30
2023-05-14T20:02:35.911Z,12.30
2023-05-14T20:05:02.965Z,12.30
2023-05-14T20:07:29.850Z,12.30
2023-05-14T20:09:56.589Z,12.30
2023-05-14T20:12:23.701Z,12.20
2023-05-14T20:14:52.231Z,12.10
2023-05-14T20:17:19.433Z,12.10
2023-05-14T20:19:46.635Z,12.10
2023-05-14T20:22:13.583Z,12.00
2023-05-14T20:24:41.212Z,12.10
2023-05-14T20:27:08.563Z,12.00
2023-05-14T20:29:35.899Z,12.10
2023-05-14T20:32:02.837Z,12.10
2023-05-14T20:34:29.580Z,12.10
2023-05-14T20:36:57.499Z,12.00
2023-05-14T20:39:24.662Z,12.00
2023-05-14T20:41:51.555Z,12.10
2023-05-14T20:44:20.381Z,12.00
2023-05-14T20:46:47.808Z,11.90
2023-05-14T20:49:14.752Z,11.90
2023-05-14T20:51:41.541Z,11.80
2023-05-14T20:54:08.468Z,11.70
2023-05-14T20:56:36.517Z,11.70
2023-05-14T20:59:03.767Z,11.70
2023-05-14T21:01:30.612Z,11.70
2023-05-14T21:03:57.558Z,11.70
2023-05-14T21:06:24.536Z,11.60
2023-05-14T21:08:51.497Z,11.60
2023-05-14T21:11:18.236Z,11.50
2023-05-14T21:13:45.131Z,11.40
2023-05-14T21:16:12.842Z,11.40
2023-05-14T21:18:39.887Z,11.30
2023-05-14T21:21:06.851Z,11.30
2023-05-14T21:23:37.202Z,11.30
2023-05-14T21:26:04.194Z,11.30
2023-05-14T21:28:31.531Z,11.30
2023-05-14T21:30:58.336Z,11.30
2023-05-14T21:33:25.126Z,11.30
2023-05-14T21:35:52.043Z,11.30
2023-05-14T21:38:19.660Z,11.30
2023-05-14T21:40:46.497Z,11.30
2023-05-14T21:43:13.334Z,11.50
2023-05-14T21:45:40.135Z,11.50
2023-05-14T21:48:07.061Z,11.50
2023-05-14T21:50:33.997Z,11.60
2023-05-14T21:53:00.773Z,11.50
2023-05-14T21:55:28.180Z,11.60
2023-05-14T21:57:55.125Z,11.60
2023-05-14T22:00:25.175Z,11.60
2023-05-14T22:02:53.569Z,11.60
2023-05-14T22:05:22.203Z,11.60
2023-05-14T22:07:49.388Z,11.70
2023-05-14T22:10:16.949Z,11.60
2023-05-14T22:12:44.884Z,11.60
2023-05-14T22:15:12.482Z,11.60
2023-05-14T22:17:39.474Z,11.60
2023-05-14T22:20:07.609Z,11.60
2023-05-14T22:22:34.741Z,11.60
2023-05-14T22:25:01.739Z,11.70
2023-05-14T22:27:28.941Z,11.70
2023-05-14T22:29:55.811Z,11.60
2023-05-14T22:32:22.702Z,11.60
2023-05-14T22:34:49.888Z,11.60
2023-05-14T22:37:17.009Z,11.60
2023-05-14T22:39:44.236Z,11.50
2023-05-14T22:42:11.186Z,11.50
2023-05-14T22:44:38.078Z,11.50
2023-05-14T22:47:05.268Z,11.60
2023-05-14T22:49:32.210Z,11.50
2023-05-14T22:51:59.313Z,11.50
2023-05-14T22:54:26.082Z,11.60
2023-05-14T22:56:52.919Z,11.60
2023-05-14T22:59:22.033Z,11.60
2023-05-14T23:01:50.475Z,11.60
2023-05-14T23:04:17.511Z,11.60
2023-05-14T23:06:44.558Z,11.60
2023-05-14T23:09:11.421Z,11.60
2023-05-14T23:11:38.330Z,11.50
2023-05-14T23:14:05.258Z,11.50
2023-05-14T23:16:32.154Z,11.40
2023-05-14T23:18:59.092Z,11.40
2023-05-14T23:21:26.060Z,11.20
2023-05-14T23:23:52.886Z,11.30
2023-05-14T23:26:19.741Z,11.20
2023-05-14T23:28:47.560Z,11.20
2023-05-14T23:31:14.459Z,11.20
2023-05-14T23:33:41.498Z,11.20
2023-05-14T23:36:08.742Z,11.10
2023-05-14T23:38:36.023Z,11.20
2023-05-14T23:41:02.892Z,11.20
2023-05-14T23:43:29.690Z,11.20
2023-05-14T23:45:56.984Z,11.10
2023-05-14T23:48:23.848Z,11.10
2023-05-14T23:50:50.837Z,11.10
2023-05-14T23:53:18.521Z,11.00
2023-05-14T23:55:46.550Z,10.90
2023-05-14T23:58:13.670Z,10.80
